sensor_id;sensor_type;location;lat;lon;timestamp;P1;durP1;ratioP1;P2;durP2;ratioP2
10295;SDS011;5193;51.032;6.356;2022-08-21T00:02:21;6.80;;;4.10;;
10295;SDS011;5193;51.032;6.356;2022-08-21T00:04:50;7.70;;;4.20;;
10295;SDS011;5193;51.032;6.356;2022-08-21T00:07:17;5.53;;;4.33;;
10295;SDS011;5193;51.032;6.356;2022-08-21T00:09:43;5.80;;;4.20;;
10295;SDS011;5193;51.032;6.356;2022-08-21T00:12:09;6.53;;;4.60;;
10295;SDS011;5193;51.032;6.356;2022-08-21T00:14:35;8.23;;;4.50;;
10295;SDS011;5193;51.032;6.356;2022-08-21T00:17:01;6.40;;;4.27;;
10295;SDS011;5193;51.032;6.356;2022-08-21T00:19:28;7.73;;;4.50;;
10295;SDS011;5193;51.032;6.356;2022-08-21T00:21:54;5.67;;;4.00;;
10295;SDS011;5193;51.032;6.356;2022-08-21T00:24:20;6.27;;;4.00;;
10295;SDS011;5193;51.032;6.356;2022-08-21T00:26:47;6.07;;;4.20;;
10295;SDS011;5193;51.032;6.356;2022-08-21T00:29:13;8.13;;;5.23;;
10295;SDS011;5193;51.032;6.356;2022-08-21T00:31:40;6.90;;;4.97;;
10295;SDS011;5193;51.032;6.356;2022-08-21T00:34:06;8.47;;;5.40;;
10295;SDS011;5193;51.032;6.356;2022-08-21T00:36:32;7.20;;;4.77;;
10295;SDS011;5193;51.032;6.356;2022-08-21T00:38:59;7.50;;;4.93;;
10295;SDS011;5193;51.032;6.356;2022-08-21T00:41:25;5.63;;;4.97;;
10295;SDS011;5193;51.032;6.356;2022-08-21T00:43:52;6.90;;;5.30;;
10295;SDS011;5193;51.032;6.356;2022-08-21T00:46:18;8.60;;;4.80;;
10295;SDS011;5193;51.032;6.356;2022-08-21T00:48:44;5.20;;;4.40;;
10295;SDS011;5193;51.032;6.356;2022-08-21T00:51:10;6.23;;;4.63;;
10295;SDS011;5193;51.032;6.356;2022-08-21T00:53:47;7.53;;;4.57;;
10295;SDS011;5193;51.032;6.356;2022-08-21T00:56:15;7.73;;;4.87;;
10295;SDS011;5193;51.032;6.356;2022-08-21T00:58:41;8.10;;;4.73;;
10295;SDS011;5193;51.032;6.356;2022-08-21T01:01:08;7.50;;;4.83;;
10295;SDS011;5193;51.032;6.356;2022-08-21T01:03:34;8.33;;;4.57;;
10295;SDS011;5193;51.032;6.356;2022-08-21T01:06:01;9.10;;;4.57;;
10295;SDS011;5193;51.032;6.356;2022-08-21T01:08:29;8.50;;;4.47;;
10295;SDS011;5193;51.032;6.356;2022-08-21T01:10:55;4.63;;;3.43;;
10295;SDS011;5193;51.032;6.356;2022-08-21T01:13:23;6.53;;;4.20;;
10295;SDS011;5193;51.032;6.356;2022-08-21T01:15:50;6.60;;;4.03;;
10295;SDS011;5193;51.032;6.356;2022-08-21T01:18:18;10.27;;;4.60;;
10295;SDS011;5193;51.032;6.356;2022-08-21T01:21:30;9.00;;;3.63;;
10295;SDS011;5193;51.032;6.356;2022-08-21T01:23:37;5.57;;;4.07;;
10295;SDS011;5193;51.032;6.356;2022-08-21T01:26:05;6.43;;;3.93;;
10295;SDS011;5193;51.032;6.356;2022-08-21T01:28:33;8.50;;;4.30;;
10295;SDS011;5193;51.032;6.356;2022-08-21T01:31:04;4.97;;;3.60;;
10295;SDS011;5193;51.032;6.356;2022-08-21T01:33:32;6.90;;;3.70;;
10295;SDS011;5193;51.032;6.356;2022-08-21T01:35:58;6.33;;;4.27;;
10295;SDS011;5193;51.032;6.356;2022-08-21T01:38:24;8.30;;;4.00;;
10295;SDS011;5193;51.032;6.356;2022-08-21T01:40:50;5.37;;;3.70;;
10295;SDS011;5193;51.032;6.356;2022-08-21T01:43:15;8.97;;;3.80;;
10295;SDS011;5193;51.032;6.356;2022-08-21T01:45:41;6.17;;;4.23;;
10295;SDS011;5193;51.032;6.356;2022-08-21T01:48:07;4.97;;;3.37;;
10295;SDS011;5193;51.032;6.356;2022-08-21T01:50:32;7.70;;;3.97;;
10295;SDS011;5193;51.032;6.356;2022-08-21T01:52:58;10.43;;;3.87;;
10295;SDS011;5193;51.032;6.356;2022-08-21T01:55:24;10.03;;;4.03;;
10295;SDS011;5193;51.032;6.356;2022-08-21T01:57:50;4.73;;;3.60;;
10295;SDS011;5193;51.032;6.356;2022-08-21T02:00:16;6.43;;;3.67;;
10295;SDS011;5193;51.032;6.356;2022-08-21T02:02:43;8.47;;;3.83;;
10295;SDS011;5193;51.032;6.356;2022-08-21T02:05:10;6.73;;;3.47;;
10295;SDS011;5193;51.032;6.356;2022-08-21T02:07:37;9.23;;;3.93;;
10295;SDS011;5193;51.032;6.356;2022-08-21T02:10:08;7.30;;;3.47;;
10295;SDS011;5193;51.032;6.356;2022-08-21T02:12:37;9.03;;;3.80;;
10295;SDS011;5193;51.032;6.356;2022-08-21T02:15:03;6.43;;;3.10;;
10295;SDS011;5193;51.032;6.356;2022-08-21T02:17:37;6.83;;;3.93;;
10295;SDS011;5193;51.032;6.356;2022-08-21T02:20:07;11.83;;;3.80;;
10295;SDS011;5193;51.032;6.356;2022-08-21T02:22:35;12.23;;;3.53;;
10295;SDS011;5193;51.032;6.356;2022-08-21T02:25:00;8.80;;;3.33;;
10295;SDS011;5193;51.032;6.356;2022-08-21T02:27:26;7.27;;;3.40;;
10295;SDS011;5193;51.032;6.356;2022-08-21T02:29:52;11.20;;;3.87;;
10295;SDS011;5193;51.032;6.356;2022-08-21T02:32:19;8.73;;;3.67;;
10295;SDS011;5193;51.032;6.356;2022-08-21T02:34:46;9.17;;;3.80;;
10295;SDS011;5193;51.032;6.356;2022-08-21T02:37:12;10.27;;;3.97;;
10295;SDS011;5193;51.032;6.356;2022-08-21T02:39:37;7.70;;;4.17;;
10295;SDS011;5193;51.032;6.356;2022-08-21T02:42:03;6.70;;;3.20;;
10295;SDS011;5193;51.032;6.356;2022-08-21T02:44:29;8.10;;;3.10;;
10295;SDS011;5193;51.032;6.356;2022-08-21T02:46:54;5.97;;;3.53;;
10295;SDS011;5193;51.032;6.356;2022-08-21T02:49:20;7.80;;;3.70;;
10295;SDS011;5193;51.032;6.356;2022-08-21T02:51:46;8.87;;;3.60;;
10295;SDS011;5193;51.032;6.356;2022-08-21T02:54:11;13.27;;;3.70;;
10295;SDS011;5193;51.032;6.356;2022-08-21T02:56:37;5.57;;;3.73;;
10295;SDS011;5193;51.032;6.356;2022-08-21T02:59:02;11.83;;;3.73;;
10295;SDS011;5193;51.032;6.356;2022-08-21T03:01:28;10.70;;;3.43;;
10295;SDS011;5193;51.032;6.356;2022-08-21T03:03:54;10.93;;;3.70;;
10295;SDS011;5193;51.032;6.356;2022-08-21T03:06:20;8.63;;;3.50;;
10295;SDS011;5193;51.032;6.356;2022-08-21T03:08:47;7.97;;;3.30;;
10295;SDS011;5193;51.032;6.356;2022-08-21T03:11:13;7.17;;;3.57;;
10295;SDS011;5193;51.032;6.356;2022-08-21T03:13:40;6.17;;;3.30;;
10295;SDS011;5193;51.032;6.356;2022-08-21T03:16:06;14.90;;;4.00;;
10295;SDS011;5193;51.032;6.356;2022-08-21T03:18:32;13.27;;;3.63;;
10295;SDS011;5193;51.032;6.356;2022-08-21T03:20:58;8.90;;;3.20;;
10295;SDS011;5193;51.032;6.356;2022-08-21T03:23:24;9.07;;;3.47;;
10295;SDS011;5193;51.032;6.356;2022-08-21T03:25:50;8.30;;;3.00;;
10295;SDS011;5193;51.032;6.356;2022-08-21T03:28:17;7.20;;;2.83;;
10295;SDS011;5193;51.032;6.356;2022-08-21T03:30:46;5.43;;;2.80;;
10295;SDS011;5193;51.032;6.356;2022-08-21T03:33:13;6.03;;;3.27;;
10295;SDS011;5193;51.032;6.356;2022-08-21T03:35:39;7.90;;;3.07;;
10295;SDS011;5193;51.032;6.356;2022-08-21T03:38:07;5.90;;;2.93;;
10295;SDS011;5193;51.032;6.356;2022-08-21T03:40:33;5.40;;;2.83;;
10295;SDS011;5193;51.032;6.356;2022-08-21T03:42:58;5.13;;;2.97;;
10295;SDS011;5193;51.032;6.356;2022-08-21T03:45:24;3.40;;;2.80;;
10295;SDS011;5193;51.032;6.356;2022-08-21T03:47:57;7.97;;;3.67;;
10295;SDS011;5193;51.032;6.356;2022-08-21T03:50:24;6.50;;;3.10;;
10295;SDS011;5193;51.032;6.356;2022-08-21T03:52:52;7.67;;;2.77;;
10295;SDS011;5193;51.032;6.356;2022-08-21T03:55:17;4.53;;;2.60;;
10295;SDS011;5193;51.032;6.356;2022-08-21T03:57:43;4.60;;;2.53;;
10295;SDS011;5193;51.032;6.356;2022-08-21T04:00:09;5.33;;;2.83;;
10295;SDS011;5193;51.032;6.356;2022-08-21T04:02:37;5.37;;;3.50;;
10295;SDS011;5193;51.032;6.356;2022-08-21T04:05:03;7.40;;;3.00;;
10295;SDS011;5193;51.032;6.356;2022-08-21T04:07:29;6.50;;;2.87;;
10295;SDS011;5193;51.032;6.356;2022-08-21T04:09:55;8.13;;;3.37;;
10295;SDS011;5193;51.032;6.356;2022-08-21T04:12:21;4.83;;;2.93;;
10295;SDS011;5193;51.032;6.356;2022-08-21T04:14:46;7.87;;;3.37;;
10295;SDS011;5193;51.032;6.356;2022-08-21T04:17:12;8.20;;;3.43;;
10295;SDS011;5193;51.032;6.356;2022-08-21T04:19:37;6.47;;;2.90;;
10295;SDS011;5193;51.032;6.356;2022-08-21T04:22:03;6.00;;;3.17;;
10295;SDS011;5193;51.032;6.356;2022-08-21T04:24:29;5.40;;;3.37;;
10295;SDS011;5193;51.032;6.356;2022-08-21T04:26:54;8.07;;;3.67;;
10295;SDS011;5193;51.032;6.356;2022-08-21T04:29:20;4.67;;;3.03;;
10295;SDS011;5193;51.032;6.356;2022-08-21T04:31:46;6.53;;;3.13;;
10295;SDS011;5193;51.032;6.356;2022-08-21T04:34:11;6.77;;;3.47;;
10295;SDS011;5193;51.032;6.356;2022-08-21T04:36:37;9.13;;;3.47;;
10295;SDS011;5193;51.032;6.356;2022-08-21T04:39:03;9.83;;;3.60;;
10295;SDS011;5193;51.032;6.356;2022-08-21T04:41:28;7.83;;;2.97;;
10295;SDS011;5193;51.032;6.356;2022-08-21T04:43:55;4.07;;;3.27;;
10295;SDS011;5193;51.032;6.356;2022-08-21T04:46:21;6.13;;;3.30;;
10295;SDS011;5193;51.032;6.356;2022-08-21T04:48:47;4.67;;;3.00;;
10295;SDS011;5193;51.032;6.356;2022-08-21T04:51:17;4.63;;;3.07;;
10295;SDS011;5193;51.032;6.356;2022-08-21T04:53:50;4.80;;;2.80;;
10295;SDS011;5193;51.032;6.356;2022-08-21T04:56:20;4.13;;;3.07;;
10295;SDS011;5193;51.032;6.356;2022-08-21T04:58:48;3.70;;;3.00;;
10295;SDS011;5193;51.032;6.356;2022-08-21T05:01:19;9.60;;;3.10;;
10295;SDS011;5193;51.032;6.356;2022-08-21T05:03:47;6.27;;;3.10;;
10295;SDS011;5193;51.032;6.356;2022-08-21T05:06:15;6.10;;;3.60;;
10295;SDS011;5193;51.032;6.356;2022-08-21T05:08:42;8.20;;;3.00;;
10295;SDS011;5193;51.032;6.356;2022-08-21T05:11:10;6.33;;;3.40;;
10295;SDS011;5193;51.032;6.356;2022-08-21T05:13:36;4.47;;;3.20;;
10295;SDS011;5193;51.032;6.356;2022-08-21T05:16:02;5.53;;;3.60;;
10295;SDS011;5193;51.032;6.356;2022-08-21T05:18:28;3.57;;;3.13;;
10295;SDS011;5193;51.032;6.356;2022-08-21T05:20:53;4.27;;;3.20;;
10295;SDS011;5193;51.032;6.356;2022-08-21T05:23:19;7.83;;;3.93;;
10295;SDS011;5193;51.032;6.356;2022-08-21T05:25:45;5.53;;;3.83;;
10295;SDS011;5193;51.032;6.356;2022-08-21T05:28:10;7.50;;;4.10;;
10295;SDS011;5193;51.032;6.356;2022-08-21T05:30:37;7.17;;;3.87;;
10295;SDS011;5193;51.032;6.356;2022-08-21T05:33:04;8.83;;;3.40;;
10295;SDS011;5193;51.032;6.356;2022-08-21T05:35:31;6.60;;;3.73;;
10295;SDS011;5193;51.032;6.356;2022-08-21T05:37:57;7.63;;;3.90;;
10295;SDS011;5193;51.032;6.356;2022-08-21T05:40:24;11.00;;;3.50;;
10295;SDS011;5193;51.032;6.356;2022-08-21T05:42:52;5.43;;;3.70;;
10295;SDS011;5193;51.032;6.356;2022-08-21T05:45:18;5.60;;;3.80;;
10295;SDS011;5193;51.032;6.356;2022-08-21T05:47:44;7.87;;;3.80;;
10295;SDS011;5193;51.032;6.356;2022-08-21T05:50:10;10.07;;;4.20;;
10295;SDS011;5193;51.032;6.356;2022-08-21T05:52:35;5.90;;;3.97;;
10295;SDS011;5193;51.032;6.356;2022-08-21T05:55:01;3.77;;;3.30;;
10295;SDS011;5193;51.032;6.356;2022-08-21T05:57:27;11.03;;;3.97;;
10295;SDS011;5193;51.032;6.356;2022-08-21T05:59:53;7.87;;;3.47;;
10295;SDS011;5193;51.032;6.356;2022-08-21T06:02:19;8.20;;;4.10;;
10295;SDS011;5193;51.032;6.356;2022-08-21T06:04:46;7.40;;;4.00;;
10295;SDS011;5193;51.032;6.356;2022-08-21T06:07:12;8.27;;;4.40;;
10295;SDS011;5193;51.032;6.356;2022-08-21T06:09:38;5.60;;;3.43;;
10295;SDS011;5193;51.032;6.356;2022-08-21T06:12:07;6.10;;;3.13;;
10295;SDS011;5193;51.032;6.356;2022-08-21T06:14:34;5.33;;;3.50;;
10295;SDS011;5193;51.032;6.356;2022-08-21T06:17:04;6.40;;;3.47;;
10295;SDS011;5193;51.032;6.356;2022-08-21T06:19:30;7.30;;;3.57;;
10295;SDS011;5193;51.032;6.356;2022-08-21T06:21:56;7.27;;;3.87;;
10295;SDS011;5193;51.032;6.356;2022-08-21T06:24:22;5.70;;;3.60;;
10295;SDS011;5193;51.032;6.356;2022-08-21T06:26:47;7.60;;;3.50;;
10295;SDS011;5193;51.032;6.356;2022-08-21T06:29:13;7.97;;;3.50;;
10295;SDS011;5193;51.032;6.356;2022-08-21T06:31:42;5.20;;;3.37;;
10295;SDS011;5193;51.032;6.356;2022-08-21T06:34:08;8.10;;;3.73;;
10295;SDS011;5193;51.032;6.356;2022-08-21T06:36:34;5.77;;;2.83;;
10295;SDS011;5193;51.032;6.356;2022-08-21T06:39:00;5.97;;;2.87;;
10295;SDS011;5193;51.032;6.356;2022-08-21T06:41:25;8.97;;;3.07;;
10295;SDS011;5193;51.032;6.356;2022-08-21T06:43:51;5.13;;;2.90;;
10295;SDS011;5193;51.032;6.356;2022-08-21T06:46:17;5.23;;;3.00;;
10295;SDS011;5193;51.032;6.356;2022-08-21T06:48:42;6.10;;;2.60;;
10295;SDS011;5193;51.032;6.356;2022-08-21T06:51:08;7.90;;;3.13;;
10295;SDS011;5193;51.032;6.356;2022-08-21T06:53:34;7.03;;;3.10;;
10295;SDS011;5193;51.032;6.356;2022-08-21T06:56:00;8.17;;;2.77;;
10295;SDS011;5193;51.032;6.356;2022-08-21T06:58:25;5.07;;;2.97;;
10295;SDS011;5193;51.032;6.356;2022-08-21T07:00:52;10.23;;;3.10;;
10295;SDS011;5193;51.032;6.356;2022-08-21T07:03:18;7.70;;;3.10;;
10295;SDS011;5193;51.032;6.356;2022-08-21T07:05:49;10.87;;;3.27;;
10295;SDS011;5193;51.032;6.356;2022-08-21T07:08:15;8.60;;;2.93;;
10295;SDS011;5193;51.032;6.356;2022-08-21T07:10:42;6.80;;;2.27;;
10295;SDS011;5193;51.032;6.356;2022-08-21T07:13:07;6.33;;;2.60;;
10295;SDS011;5193;51.032;6.356;2022-08-21T07:15:33;6.67;;;2.70;;
10295;SDS011;5193;51.032;6.356;2022-08-21T07:17:59;9.70;;;2.53;;
10295;SDS011;5193;51.032;6.356;2022-08-21T07:20:26;6.40;;;2.20;;
10295;SDS011;5193;51.032;6.356;2022-08-21T07:22:53;8.57;;;2.63;;
10295;SDS011;5193;51.032;6.356;2022-08-21T07:25:19;4.20;;;1.83;;
10295;SDS011;5193;51.032;6.356;2022-08-21T07:27:44;4.93;;;2.03;;
10295;SDS011;5193;51.032;6.356;2022-08-21T07:30:10;7.20;;;2.20;;
10295;SDS011;5193;51.032;6.356;2022-08-21T07:32:36;7.17;;;1.73;;
10295;SDS011;5193;51.032;6.356;2022-08-21T07:35:01;7.13;;;2.00;;
10295;SDS011;5193;51.032;6.356;2022-08-21T07:37:27;10.53;;;2.10;;
10295;SDS011;5193;51.032;6.356;2022-08-21T07:39:53;4.83;;;1.67;;
10295;SDS011;5193;51.032;6.356;2022-08-21T07:42:18;3.70;;;1.37;;
10295;SDS011;5193;51.032;6.356;2022-08-21T07:44:44;4.17;;;1.40;;
10295;SDS011;5193;51.032;6.356;2022-08-21T07:47:09;4.17;;;1.10;;
10295;SDS011;5193;51.032;6.356;2022-08-21T07:49:35;4.77;;;1.67;;
10295;SDS011;5193;51.032;6.356;2022-08-21T07:52:01;4.83;;;1.47;;
10295;SDS011;5193;51.032;6.356;2022-08-21T07:54:27;4.63;;;1.53;;
10295;SDS011;5193;51.032;6.356;2022-08-21T07:56:52;2.20;;;1.03;;
10295;SDS011;5193;51.032;6.356;2022-08-21T07:59:18;7.63;;;1.90;;
10295;SDS011;5193;51.032;6.356;2022-08-21T08:01:43;5.33;;;1.53;;
10295;SDS011;5193;51.032;6.356;2022-08-21T08:04:09;4.03;;;1.27;;
10295;SDS011;5193;51.032;6.356;2022-08-21T08:06:35;2.00;;;1.10;;
10295;SDS011;5193;51.032;6.356;2022-08-21T08:09:00;5.60;;;1.50;;
10295;SDS011;5193;51.032;6.356;2022-08-21T08:11:28;4.77;;;1.20;;
10295;SDS011;5193;51.032;6.356;2022-08-21T08:13:54;3.63;;;1.10;;
10295;SDS011;5193;51.032;6.356;2022-08-21T08:16:22;3.73;;;1.40;;
10295;SDS011;5193;51.032;6.356;2022-08-21T08:18:48;4.53;;;1.40;;
10295;SDS011;5193;51.032;6.356;2022-08-21T08:21:14;5.83;;;1.10;;
10295;SDS011;5193;51.032;6.356;2022-08-21T08:23:39;2.70;;;1.00;;
10295;SDS011;5193;51.032;6.356;2022-08-21T08:26:05;3.30;;;1.10;;
10295;SDS011;5193;51.032;6.356;2022-08-21T08:28:32;2.53;;;1.10;;
10295;SDS011;5193;51.032;6.356;2022-08-21T08:30:58;2.40;;;0.70;;
10295;SDS011;5193;51.032;6.356;2022-08-21T08:33:24;3.73;;;1.03;;
10295;SDS011;5193;51.032;6.356;2022-08-21T08:35:50;5.30;;;1.10;;
10295;SDS011;5193;51.032;6.356;2022-08-21T08:38:17;3.17;;;1.00;;
10295;SDS011;5193;51.032;6.356;2022-08-21T08:43:28;4.73;;;0.93;;
10295;SDS011;5193;51.032;6.356;2022-08-21T08:45:57;4.43;;;1.43;;
10295;SDS011;5193;51.032;6.356;2022-08-21T08:48:49;3.80;;;1.20;;
10295;SDS011;5193;51.032;6.356;2022-08-21T08:52:18;4.17;;;1.17;;
10295;SDS011;5193;51.032;6.356;2022-08-21T08:54:14;2.50;;;1.10;;
10295;SDS011;5193;51.032;6.356;2022-08-21T08:56:43;3.97;;;1.20;;
10295;SDS011;5193;51.032;6.356;2022-08-21T08:59:18;4.87;;;1.17;;
10295;SDS011;5193;51.032;6.356;2022-08-21T09:01:47;6.40;;;1.37;;
10295;SDS011;5193;51.032;6.356;2022-08-21T09:04:13;2.97;;;0.90;;
10295;SDS011;5193;51.032;6.356;2022-08-21T09:09:31;3.43;;;1.00;;
10295;SDS011;5193;51.032;6.356;2022-08-21T09:12:14;6.77;;;1.30;;
10295;SDS011;5193;51.032;6.356;2022-08-21T09:15:13;3.07;;;1.13;;
10295;SDS011;5193;51.032;6.356;2022-08-21T09:23:34;5.83;;;2.03;;
10295;SDS011;5193;51.032;6.356;2022-08-21T09:26:23;4.43;;;1.40;;
10295;SDS011;5193;51.032;6.356;2022-08-21T09:28:54;3.90;;;1.00;;
10295;SDS011;5193;51.032;6.356;2022-08-21T09:31:35;3.90;;;1.30;;
10295;SDS011;5193;51.032;6.356;2022-08-21T09:34:08;4.43;;;1.20;;
10295;SDS011;5193;51.032;6.356;2022-08-21T09:36:43;8.87;;;1.30;;
10295;SDS011;5193;51.032;6.356;2022-08-21T09:39:12;4.47;;;1.10;;
10295;SDS011;5193;51.032;6.356;2022-08-21T09:41:49;3.43;;;1.00;;
10295;SDS011;5193;51.032;6.356;2022-08-21T09:44:29;7.83;;;1.50;;
10295;SDS011;5193;51.032;6.356;2022-08-21T09:46:57;4.87;;;1.10;;
10295;SDS011;5193;51.032;6.356;2022-08-21T09:49:26;3.50;;;0.97;;
10295;SDS011;5193;51.032;6.356;2022-08-21T09:51:56;2.70;;;1.10;;
10295;SDS011;5193;51.032;6.356;2022-08-21T09:54:26;4.80;;;1.10;;
10295;SDS011;5193;51.032;6.356;2022-08-21T09:57:00;4.97;;;1.37;;
10295;SDS011;5193;51.032;6.356;2022-08-21T09:59:55;4.97;;;1.50;;
10295;SDS011;5193;51.032;6.356;2022-08-21T10:02:34;3.23;;;0.93;;
10295;SDS011;5193;51.032;6.356;2022-08-21T10:05:03;3.20;;;1.20;;
10295;SDS011;5193;51.032;6.356;2022-08-21T10:07:40;4.73;;;1.30;;
10295;SDS011;5193;51.032;6.356;2022-08-21T10:10:07;4.87;;;1.23;;
10295;SDS011;5193;51.032;6.356;2022-08-21T10:20:40;3.63;;;1.53;;
10295;SDS011;5193;51.032;6.356;2022-08-21T10:23:27;5.10;;;1.83;;
10295;SDS011;5193;51.032;6.356;2022-08-21T10:29:25;4.53;;;1.40;;
10295;SDS011;5193;51.032;6.356;2022-08-21T10:37:59;6.63;;;1.87;;
10295;SDS011;5193;51.032;6.356;2022-08-21T10:40:59;3.40;;;1.50;;
10295;SDS011;5193;51.032;6.356;2022-08-21T10:43:40;3.70;;;1.20;;
10295;SDS011;5193;51.032;6.356;2022-08-21T10:52:15;5.03;;;1.63;;
10295;SDS011;5193;51.032;6.356;2022-08-21T10:55:14;5.33;;;1.40;;
10295;SDS011;5193;51.032;6.356;2022-08-21T10:57:50;10.60;;;1.63;;
10295;SDS011;5193;51.032;6.356;2022-08-21T11:00:39;4.50;;;1.40;;
10295;SDS011;5193;51.032;6.356;2022-08-21T11:06:20;5.87;;;1.60;;
10295;SDS011;5193;51.032;6.356;2022-08-21T11:08:48;5.47;;;1.30;;
10295;SDS011;5193;51.032;6.356;2022-08-21T11:11:26;6.93;;;1.50;;
10295;SDS011;5193;51.032;6.356;2022-08-21T11:16:49;3.07;;;1.27;;
10295;SDS011;5193;51.032;6.356;2022-08-21T11:19:33;3.73;;;1.10;;
10295;SDS011;5193;51.032;6.356;2022-08-21T11:25:00;3.93;;;1.50;;
10295;SDS011;5193;51.032;6.356;2022-08-21T11:46:17;3.53;;;1.27;;
10295;SDS011;5193;51.032;6.356;2022-08-21T12:02:34;5.95;;;1.10;;
10295;SDS011;5193;51.032;6.356;2022-08-21T12:05:04;4.35;;;1.10;;
10295;SDS011;5193;51.032;6.356;2022-08-21T12:10:07;4.65;;;1.17;;
10295;SDS011;5193;51.032;6.356;2022-08-21T12:12:39;3.40;;;1.20;;
10295;SDS011;5193;51.032;6.356;2022-08-21T12:15:13;3.05;;;1.38;;
10295;SDS011;5193;51.032;6.356;2022-08-21T12:17:40;4.00;;;1.33;;
10295;SDS011;5193;51.032;6.356;2022-08-21T12:20:26;1.75;;;0.88;;
10295;SDS011;5193;51.032;6.356;2022-08-21T12:25:43;3.95;;;1.08;;
10295;SDS011;5193;51.032;6.356;2022-08-21T12:28:24;2.78;;;1.33;;
10295;SDS011;5193;51.032;6.356;2022-08-21T12:30:51;4.03;;;1.13;;
10295;SDS011;5193;51.032;6.356;2022-08-21T12:33:18;4.05;;;1.40;;
10295;SDS011;5193;51.032;6.356;2022-08-21T12:36:12;3.28;;;1.25;;
10295;SDS011;5193;51.032;6.356;2022-08-21T12:39:04;2.47;;;1.20;;
10295;SDS011;5193;51.032;6.356;2022-08-21T12:41:49;2.78;;;0.95;;
10295;SDS011;5193;51.032;6.356;2022-08-21T12:44:41;2.83;;;1.23;;
10295;SDS011;5193;51.032;6.356;2022-08-21T12:47:15;1.77;;;0.90;;
10295;SDS011;5193;51.032;6.356;2022-08-21T12:52:35;3.25;;;1.10;;
10295;SDS011;5193;51.032;6.356;2022-08-21T12:55:06;3.60;;;1.13;;
10295;SDS011;5193;51.032;6.356;2022-08-21T12:57:37;2.65;;;0.98;;
10295;SDS011;5193;51.032;6.356;2022-08-21T13:00:06;3.55;;;1.08;;
10295;SDS011;5193;51.032;6.356;2022-08-21T13:02:38;4.50;;;1.42;;
10295;SDS011;5193;51.032;6.356;2022-08-21T13:05:12;1.60;;;1.05;;
10295;SDS011;5193;51.032;6.356;2022-08-21T13:07:43;3.38;;;1.08;;
10295;SDS011;5193;51.032;6.356;2022-08-21T13:10:20;3.55;;;1.50;;
10295;SDS011;5193;51.032;6.356;2022-08-21T13:12:48;2.25;;;0.93;;
10295;SDS011;5193;51.032;6.356;2022-08-21T13:15:14;3.20;;;1.40;;
10295;SDS011;5193;51.032;6.356;2022-08-21T13:17:47;3.17;;;1.30;;
10295;SDS011;5193;51.032;6.356;2022-08-21T13:20:23;2.45;;;0.90;;
10295;SDS011;5193;51.032;6.356;2022-08-21T13:22:52;2.70;;;1.13;;
10295;SDS011;5193;51.032;6.356;2022-08-21T13:25:19;7.72;;;1.23;;
10295;SDS011;5193;51.032;6.356;2022-08-21T13:28:00;2.92;;;0.90;;
10295;SDS011;5193;51.032;6.356;2022-08-21T13:30:26;2.47;;;1.00;;
10295;SDS011;5193;51.032;6.356;2022-08-21T13:32:55;1.23;;;0.75;;
10295;SDS011;5193;51.032;6.356;2022-08-21T13:35:27;5.70;;;0.95;;
10295;SDS011;5193;51.032;6.356;2022-08-21T13:37:56;1.83;;;1.30;;
10295;SDS011;5193;51.032;6.356;2022-08-21T13:40:26;2.33;;;1.08;;
10295;SDS011;5193;51.032;6.356;2022-08-21T13:42:55;2.80;;;1.02;;
10295;SDS011;5193;51.032;6.356;2022-08-21T13:45:23;2.70;;;1.10;;
10295;SDS011;5193;51.032;6.356;2022-08-21T13:47:52;2.25;;;0.93;;
10295;SDS011;5193;51.032;6.356;2022-08-21T13:50:20;5.80;;;1.50;;
10295;SDS011;5193;51.032;6.356;2022-08-21T13:52:58;4.30;;;1.33;;
10295;SDS011;5193;51.032;6.356;2022-08-21T13:55:35;2.45;;;1.17;;
10295;SDS011;5193;51.032;6.356;2022-08-21T13:58:07;1.50;;;0.85;;
10295;SDS011;5193;51.032;6.356;2022-08-21T14:00:34;2.58;;;1.00;;
10295;SDS011;5193;51.032;6.356;2022-08-21T14:03:09;2.03;;;1.05;;
10295;SDS011;5193;51.032;6.356;2022-08-21T14:05:43;3.08;;;1.00;;
10295;SDS011;5193;51.032;6.356;2022-08-21T14:08:14;3.05;;;1.20;;
10295;SDS011;5193;51.032;6.356;2022-08-21T14:10:49;3.25;;;1.40;;
10295;SDS011;5193;51.032;6.356;2022-08-21T14:13:23;3.90;;;1.17;;
10295;SDS011;5193;51.032;6.356;2022-08-21T14:15:59;2.28;;;0.82;;
10295;SDS011;5193;51.032;6.356;2022-08-21T14:18:26;2.72;;;1.17;;
10295;SDS011;5193;51.032;6.356;2022-08-21T14:21:03;2.25;;;0.88;;
10295;SDS011;5193;51.032;6.356;2022-08-21T14:23:30;2.40;;;0.93;;
10295;SDS011;5193;51.032;6.356;2022-08-21T14:25:58;3.33;;;1.15;;
10295;SDS011;5193;51.032;6.356;2022-08-21T14:28:28;2.95;;;1.48;;
10295;SDS011;5193;51.032;6.356;2022-08-21T14:31:10;2.15;;;1.05;;
10295;SDS011;5193;51.032;6.356;2022-08-21T14:33:43;2.63;;;1.27;;
10295;SDS011;5193;51.032;6.356;2022-08-21T14:36:09;3.03;;;1.35;;
10295;SDS011;5193;51.032;6.356;2022-08-21T14:38:36;16.17;;;1.58;;
10295;SDS011;5193;51.032;6.356;2022-08-21T14:41:17;2.95;;;1.13;;
10295;SDS011;5193;51.032;6.356;2022-08-21T14:43:46;4.30;;;1.15;;
10295;SDS011;5193;51.032;6.356;2022-08-21T14:46:13;3.80;;;1.00;;
10295;SDS011;5193;51.032;6.356;2022-08-21T14:48:45;3.28;;;1.30;;
10295;SDS011;5193;51.032;6.356;2022-08-21T14:51:11;2.45;;;1.10;;
10295;SDS011;5193;51.032;6.356;2022-08-21T14:53:38;2.15;;;0.90;;
10295;SDS011;5193;51.032;6.356;2022-08-21T14:56:04;2.78;;;1.08;;
10295;SDS011;5193;51.032;6.356;2022-08-21T14:58:30;4.18;;;1.20;;
10295;SDS011;5193;51.032;6.356;2022-08-21T15:00:57;3.50;;;1.13;;
10295;SDS011;5193;51.032;6.356;2022-08-21T15:03:23;5.07;;;1.55;;
10295;SDS011;5193;51.032;6.356;2022-08-21T15:05:52;1.63;;;1.02;;
10295;SDS011;5193;51.032;6.356;2022-08-21T15:08:18;2.60;;;1.17;;
10295;SDS011;5193;51.032;6.356;2022-08-21T15:10:43;2.20;;;1.17;;
10295;SDS011;5193;51.032;6.356;2022-08-21T15:13:10;2.67;;;1.05;;
10295;SDS011;5193;51.032;6.356;2022-08-21T15:15:39;2.58;;;0.98;;
10295;SDS011;5193;51.032;6.356;2022-08-21T15:18:07;1.70;;;1.10;;
10295;SDS011;5193;51.032;6.356;2022-08-21T15:20:33;2.97;;;1.08;;
10295;SDS011;5193;51.032;6.356;2022-08-21T15:22:59;2.00;;;1.20;;
10295;SDS011;5193;51.032;6.356;2022-08-21T15:25:25;1.77;;;1.00;;
10295;SDS011;5193;51.032;6.356;2022-08-21T15:27:51;5.70;;;1.17;;
10295;SDS011;5193;51.032;6.356;2022-08-21T15:30:16;2.08;;;0.90;;
10295;SDS011;5193;51.032;6.356;2022-08-21T15:32:42;2.50;;;1.38;;
10295;SDS011;5193;51.032;6.356;2022-08-21T15:35:08;3.95;;;1.00;;
10295;SDS011;5193;51.032;6.356;2022-08-21T15:37:34;2.28;;;1.00;;
10295;SDS011;5193;51.032;6.356;2022-08-21T15:40:00;5.47;;;1.23;;
10295;SDS011;5193;51.032;6.356;2022-08-21T15:42:26;2.95;;;1.20;;
10295;SDS011;5193;51.032;6.356;2022-08-21T15:44:52;3.60;;;1.20;;
10295;SDS011;5193;51.032;6.356;2022-08-21T15:47:30;2.63;;;1.48;;
10295;SDS011;5193;51.032;6.356;2022-08-21T15:49:59;4.93;;;1.25;;
10295;SDS011;5193;51.032;6.356;2022-08-21T15:52:25;3.40;;;1.30;;
10295;SDS011;5193;51.032;6.356;2022-08-21T15:54:51;3.53;;;1.20;;
10295;SDS011;5193;51.032;6.356;2022-08-21T15:57:18;4.68;;;1.20;;
10295;SDS011;5193;51.032;6.356;2022-08-21T15:59:50;2.65;;;1.20;;
10295;SDS011;5193;51.032;6.356;2022-08-21T16:02:34;3.85;;;1.17;;
10295;SDS011;5193;51.032;6.356;2022-08-21T16:04:59;3.13;;;1.25;;
10295;SDS011;5193;51.032;6.356;2022-08-21T16:07:25;4.25;;;1.40;;
10295;SDS011;5193;51.032;6.356;2022-08-21T16:09:51;4.68;;;1.40;;
10295;SDS011;5193;51.032;6.356;2022-08-21T16:12:18;5.07;;;1.35;;
10295;SDS011;5193;51.032;6.356;2022-08-21T16:14:47;3.85;;;1.13;;
10295;SDS011;5193;51.032;6.356;2022-08-21T16:17:14;2.30;;;1.15;;
10295;SDS011;5193;51.032;6.356;2022-08-21T16:19:40;4.30;;;1.05;;
10295;SDS011;5193;51.032;6.356;2022-08-21T16:22:06;3.60;;;1.30;;
10295;SDS011;5193;51.032;6.356;2022-08-21T16:24:32;4.55;;;1.23;;
10295;SDS011;5193;51.032;6.356;2022-08-21T16:26:57;5.53;;;1.55;;
10295;SDS011;5193;51.032;6.356;2022-08-21T16:29:23;3.88;;;1.63;;
10295;SDS011;5193;51.032;6.356;2022-08-21T16:31:53;3.13;;;1.60;;
10295;SDS011;5193;51.032;6.356;2022-08-21T16:34:19;4.00;;;1.30;;
10295;SDS011;5193;51.032;6.356;2022-08-21T16:36:45;3.33;;;1.48;;